sensor_id;sensor_type;location;lat;lon;timestamp;P1;durP1;ratioP1;P2;durP2;ratioP2
49784;SDS011;35679;38.732;-121.358;2023-03-03T00:01:32;2.83;;;2.63;;
49784;SDS011;35679;38.732;-121.358;2023-03-03T00:04:21;2.45;;;2.13;;
49784;SDS011;35679;38.732;-121.358;2023-03-03T00:07:10;4.30;;;2.28;;
49784;SDS011;35679;38.732;-121.358;2023-03-03T00:10:02;2.58;;;2.47;;
49784;SDS011;35679;38.732;-121.358;2023-03-03T00:12:52;2.63;;;2.42;;
49784;SDS011;35679;38.732;-121.358;2023-03-03T00:15:41;2.85;;;2.45;;
49784;SDS011;35679;38.732;-121.358;2023-03-03T00:18:35;2.33;;;2.13;;
49784;SDS011;35679;38.732;-121.358;2023-03-03T00:21:29;2.33;;;2.22;;
49784;SDS011;35679;38.732;-121.358;2023-03-03T00:27:29;2.67;;;2.50;;
49784;SDS011;35679;38.732;-121.358;2023-03-03T00:30:22;3.28;;;2.40;;
49784;SDS011;35679;38.732;-121.358;2023-03-03T00:36:27;4.97;;;2.03;;
49784;SDS011;35679;38.732;-121.358;2023-03-03T00:39:30;2.22;;;2.10;;
49784;SDS011;35679;38.732;-121.358;2023-03-03T00:42:25;2.30;;;2.20;;
49784;SDS011;35679;38.732;-121.358;2023-03-03T00:45:17;2.40;;;2.30;;
49784;SDS011;35679;38.732;-121.358;2023-03-03T00:48:40;2.40;;;2.20;;
49784;SDS011;35679;38.732;-121.358;2023-03-03T00:54:17;5.50;;;3.00;;
49784;SDS011;35679;38.732;-121.358;2023-03-03T00:57:07;9.60;;;3.08;;
49784;SDS011;35679;38.732;-121.358;2023-03-03T00:59:56;11.88;;;3.40;;
49784;SDS011;35679;38.732;-121.358;2023-03-03T01:02:46;7.72;;;3.03;;
49784;SDS011;35679;38.732;-121.358;2023-03-03T01:05:36;7.65;;;3.25;;
49784;SDS011;35679;38.732;-121.358;2023-03-03T01:08:26;5.97;;;3.25;;
49784;SDS011;35679;38.732;-121.358;2023-03-03T01:11:16;9.40;;;3.50;;
49784;SDS011;35679;38.732;-121.358;2023-03-03T01:14:11;6.55;;;2.80;;
49784;SDS011;35679;38.732;-121.358;2023-03-03T01:17:01;8.50;;;3.17;;
49784;SDS011;35679;38.732;-121.358;2023-03-03T01:19:50;4.70;;;3.00;;
49784;SDS011;35679;38.732;-121.358;2023-03-03T01:22:40;4.20;;;2.60;;
49784;SDS011;35679;38.732;-121.358;2023-03-03T01:25:30;5.55;;;3.03;;
49784;SDS011;35679;38.732;-121.358;2023-03-03T01:28:19;8.35;;;2.72;;
49784;SDS011;35679;38.732;-121.358;2023-03-03T01:31:11;5.00;;;2.80;;
49784;SDS011;35679;38.732;-121.358;2023-03-03T01:34:03;5.20;;;3.30;;
49784;SDS011;35679;38.732;-121.358;2023-03-03T01:36:54;7.97;;;3.42;;
49784;SDS011;35679;38.732;-121.358;2023-03-03T01:39:47;3.30;;;2.90;;
49784;SDS011;35679;38.732;-121.358;2023-03-03T01:42:40;6.57;;;3.05;;
49784;SDS011;35679;38.732;-121.358;2023-03-03T01:45:30;3.75;;;2.80;;
49784;SDS011;35679;38.732;-121.358;2023-03-03T01:48:41;6.40;;;3.25;;
49784;SDS011;35679;38.732;-121.358;2023-03-03T01:51:35;3.78;;;2.97;;
49784;SDS011;35679;38.732;-121.358;2023-03-03T01:54:32;3.65;;;2.85;;
49784;SDS011;35679;38.732;-121.358;2023-03-03T01:57:31;4.60;;;2.78;;
49784;SDS011;35679;38.732;-121.358;2023-03-03T02:00:24;4.28;;;2.95;;
49784;SDS011;35679;38.732;-121.358;2023-03-03T02:03:15;7.97;;;3.03;;
49784;SDS011;35679;38.732;-121.358;2023-03-03T02:06:06;3.80;;;2.80;;
49784;SDS011;35679;38.732;-121.358;2023-03-03T02:09:13;4.43;;;2.78;;
49784;SDS011;35679;38.732;-121.358;2023-03-03T02:12:27;5.97;;;3.03;;
49784;SDS011;35679;38.732;-121.358;2023-03-03T02:15:28;3.72;;;2.70;;
49784;SDS011;35679;38.732;-121.358;2023-03-03T02:18:19;3.67;;;2.88;;
49784;SDS011;35679;38.732;-121.358;2023-03-03T02:21:12;3.10;;;2.90;;
49784;SDS011;35679;38.732;-121.358;2023-03-03T02:27:11;3.20;;;2.97;;
49784;SDS011;35679;38.732;-121.358;2023-03-03T02:30:07;3.35;;;3.05;;
49784;SDS011;35679;38.732;-121.358;2023-03-03T02:33:04;2.95;;;2.70;;
49784;SDS011;35679;38.732;-121.358;2023-03-03T02:35:54;5.53;;;3.20;;
49784;SDS011;35679;38.732;-121.358;2023-03-03T02:44:49;5.28;;;2.70;;
49784;SDS011;35679;38.732;-121.358;2023-03-03T02:47:39;3.22;;;2.80;;
49784;SDS011;35679;38.732;-121.358;2023-03-03T02:50:28;3.30;;;2.97;;
49784;SDS011;35679;38.732;-121.358;2023-03-03T02:53:17;3.03;;;2.80;;
49784;SDS011;35679;38.732;-121.358;2023-03-03T02:56:07;3.53;;;2.78;;
49784;SDS011;35679;38.732;-121.358;2023-03-03T02:58:56;2.90;;;2.70;;
49784;SDS011;35679;38.732;-121.358;2023-03-03T03:01:47;4.55;;;3.10;;
49784;SDS011;35679;38.732;-121.358;2023-03-03T03:04:38;2.92;;;2.58;;
49784;SDS011;35679;38.732;-121.358;2023-03-03T03:07:29;3.50;;;2.90;;
49784;SDS011;35679;38.732;-121.358;2023-03-03T03:10:19;2.75;;;2.50;;
49784;SDS011;35679;38.732;-121.358;2023-03-03T03:13:10;3.92;;;2.80;;
49784;SDS011;35679;38.732;-121.358;2023-03-03T03:16:00;2.90;;;2.70;;
49784;SDS011;35679;38.732;-121.358;2023-03-03T03:18:50;3.17;;;2.97;;
49784;SDS011;35679;38.732;-121.358;2023-03-03T03:21:39;3.72;;;2.67;;
49784;SDS011;35679;38.732;-121.358;2023-03-03T03:24:30;3.10;;;2.80;;
49784;SDS011;35679;38.732;-121.358;2023-03-03T03:27:23;2.83;;;2.63;;
49784;SDS011;35679;38.732;-121.358;2023-03-03T03:30:13;3.08;;;2.88;;
49784;SDS011;35679;38.732;-121.358;2023-03-03T03:33:03;2.97;;;2.70;;
49784;SDS011;35679;38.732;-121.358;2023-03-03T03:35:53;4.45;;;3.03;;
49784;SDS011;35679;38.732;-121.358;2023-03-03T03:38:44;3.35;;;2.95;;
49784;SDS011;35679;38.732;-121.358;2023-03-03T03:41:33;3.50;;;3.00;;
49784;SDS011;35679;38.732;-121.358;2023-03-03T03:44:23;3.55;;;2.70;;
49784;SDS011;35679;38.732;-121.358;2023-03-03T03:47:14;3.88;;;3.58;;
49784;SDS011;35679;38.732;-121.358;2023-03-03T03:50:04;3.20;;;3.00;;
49784;SDS011;35679;38.732;-121.358;2023-03-03T03:52:54;2.85;;;2.65;;
49784;SDS011;35679;38.732;-121.358;2023-03-03T03:55:43;3.15;;;2.95;;
49784;SDS011;35679;38.732;-121.358;2023-03-03T03:58:34;3.05;;;2.75;;
49784;SDS011;35679;38.732;-121.358;2023-03-03T04:01:27;3.53;;;2.65;;
49784;SDS011;35679;38.732;-121.358;2023-03-03T04:04:17;3.10;;;2.90;;
49784;SDS011;35679;38.732;-121.358;2023-03-03T04:07:06;3.13;;;2.83;;
49784;SDS011;35679;38.732;-121.358;2023-03-03T04:09:58;3.20;;;3.00;;
49784;SDS011;35679;38.732;-121.358;2023-03-03T04:12:48;2.92;;;2.72;;
49784;SDS011;35679;38.732;-121.358;2023-03-03T04:15:37;2.88;;;2.67;;
49784;SDS011;35679;38.732;-121.358;2023-03-03T04:18:27;3.38;;;3.08;;
49784;SDS011;35679;38.732;-121.358;2023-03-03T04:21:17;3.85;;;2.92;;
49784;SDS011;35679;38.732;-121.358;2023-03-03T04:24:08;2.90;;;2.70;;
49784;SDS011;35679;38.732;-121.358;2023-03-03T04:26:57;2.92;;;2.72;;
49784;SDS011;35679;38.732;-121.358;2023-03-03T04:29:48;3.13;;;2.72;;
49784;SDS011;35679;38.732;-121.358;2023-03-03T04:32:39;2.97;;;2.78;;
49784;SDS011;35679;38.732;-121.358;2023-03-03T04:35:30;3.53;;;3.22;;
49784;SDS011;35679;38.732;-121.358;2023-03-03T04:38:21;3.05;;;2.85;;
49784;SDS011;35679;38.732;-121.358;2023-03-03T04:41:11;2.90;;;2.70;;
49784;SDS011;35679;38.732;-121.358;2023-03-03T04:44:01;3.00;;;2.80;;
49784;SDS011;35679;38.732;-121.358;2023-03-03T04:46:51;3.25;;;2.90;;
49784;SDS011;35679;38.732;-121.358;2023-03-03T04:49:40;2.90;;;2.70;;
49784;SDS011;35679;38.732;-121.358;2023-03-03T04:52:30;3.25;;;3.05;;
49784;SDS011;35679;38.732;-121.358;2023-03-03T04:55:20;4.70;;;3.00;;
49784;SDS011;35679;38.732;-121.358;2023-03-03T04:58:10;3.55;;;3.22;;
49784;SDS011;35679;38.732;-121.358;2023-03-03T05:01:00;3.28;;;3.00;;
49784;SDS011;35679;38.732;-121.358;2023-03-03T05:03:51;3.03;;;2.83;;
49784;SDS011;35679;38.732;-121.358;2023-03-03T05:06:41;4.22;;;3.72;;
49784;SDS011;35679;38.732;-121.358;2023-03-03T05:09:30;3.08;;;2.78;;
49784;SDS011;35679;38.732;-121.358;2023-03-03T05:12:19;3.20;;;3.00;;
49784;SDS011;35679;38.732;-121.358;2023-03-03T05:15:09;3.38;;;3.08;;
49784;SDS011;35679;38.732;-121.358;2023-03-03T05:17:59;2.95;;;2.75;;
49784;SDS011;35679;38.732;-121.358;2023-03-03T05:20:49;3.60;;;3.00;;
49784;SDS011;35679;38.732;-121.358;2023-03-03T05:23:39;3.00;;;2.80;;
49784;SDS011;35679;38.732;-121.358;2023-03-03T05:26:28;3.00;;;2.80;;
49784;SDS011;35679;38.732;-121.358;2023-03-03T05:29:18;3.10;;;2.90;;
49784;SDS011;35679;38.732;-121.358;2023-03-03T05:32:07;3.40;;;3.10;;
49784;SDS011;35679;38.732;-121.358;2023-03-03T05:34:57;3.30;;;3.00;;
49784;SDS011;35679;38.732;-121.358;2023-03-03T05:37:46;3.22;;;3.03;;
49784;SDS011;35679;38.732;-121.358;2023-03-03T05:40:37;3.00;;;2.80;;
49784;SDS011;35679;38.732;-121.358;2023-03-03T05:43:27;3.40;;;3.10;;
49784;SDS011;35679;38.732;-121.358;2023-03-03T05:46:17;3.80;;;3.08;;
49784;SDS011;35679;38.732;-121.358;2023-03-03T05:49:06;2.90;;;2.70;;
49784;SDS011;35679;38.732;-121.358;2023-03-03T05:51:56;3.53;;;3.20;;
49784;SDS011;35679;38.732;-121.358;2023-03-03T05:54:46;2.95;;;2.83;;
49784;SDS011;35679;38.732;-121.358;2023-03-03T05:57:35;3.25;;;3.03;;
49784;SDS011;35679;38.732;-121.358;2023-03-03T06:00:25;3.10;;;2.90;;
49784;SDS011;35679;38.732;-121.358;2023-03-03T06:03:14;3.28;;;3.08;;
49784;SDS011;35679;38.732;-121.358;2023-03-03T06:06:04;4.72;;;3.30;;
49784;SDS011;35679;38.732;-121.358;2023-03-03T06:08:53;3.05;;;2.85;;
49784;SDS011;35679;38.732;-121.358;2023-03-03T06:11:43;3.45;;;3.15;;
49784;SDS011;35679;38.732;-121.358;2023-03-03T06:14:33;3.78;;;3.33;;
49784;SDS011;35679;38.732;-121.358;2023-03-03T06:17:22;3.40;;;3.13;;
49784;SDS011;35679;38.732;-121.358;2023-03-03T06:20:11;3.03;;;2.83;;
49784;SDS011;35679;38.732;-121.358;2023-03-03T06:23:01;3.42;;;3.10;;
49784;SDS011;35679;38.732;-121.358;2023-03-03T06:25:50;3.33;;;3.03;;
49784;SDS011;35679;38.732;-121.358;2023-03-03T06:28:40;3.50;;;3.20;;
49784;SDS011;35679;38.732;-121.358;2023-03-03T06:31:29;4.30;;;3.10;;
49784;SDS011;35679;38.732;-121.358;2023-03-03T06:34:19;3.20;;;3.00;;
49784;SDS011;35679;38.732;-121.358;2023-03-03T06:37:09;3.42;;;3.13;;
49784;SDS011;35679;38.732;-121.358;2023-03-03T06:39:58;3.30;;;3.08;;
49784;SDS011;35679;38.732;-121.358;2023-03-03T06:42:48;3.30;;;3.10;;
49784;SDS011;35679;38.732;-121.358;2023-03-03T06:45:37;3.67;;;3.38;;
49784;SDS011;35679;38.732;-121.358;2023-03-03T06:48:27;3.40;;;3.10;;
49784;SDS011;35679;38.732;-121.358;2023-03-03T06:51:22;3.20;;;2.90;;
49784;SDS011;35679;38.732;-121.358;2023-03-03T06:54:18;3.30;;;3.00;;
49784;SDS011;35679;38.732;-121.358;2023-03-03T06:57:19;4.22;;;3.40;;
49784;SDS011;35679;38.732;-121.358;2023-03-03T07:00:19;3.80;;;3.50;;
49784;SDS011;35679;38.732;-121.358;2023-03-03T07:03:16;3.28;;;3.08;;
49784;SDS011;35679;38.732;-121.358;2023-03-03T07:06:15;3.47;;;3.17;;
49784;SDS011;35679;38.732;-121.358;2023-03-03T07:09:26;5.43;;;3.10;;
49784;SDS011;35679;38.732;-121.358;2023-03-03T07:12:25;3.30;;;3.00;;
49784;SDS011;35679;38.732;-121.358;2023-03-03T07:15:19;3.22;;;3.03;;
49784;SDS011;35679;38.732;-121.358;2023-03-03T07:21:34;3.55;;;3.25;;
49784;SDS011;35679;38.732;-121.358;2023-03-03T07:24:26;3.42;;;3.15;;
49784;SDS011;35679;38.732;-121.358;2023-03-03T07:27:24;3.15;;;2.95;;
49784;SDS011;35679;38.732;-121.358;2023-03-03T07:33:54;3.70;;;3.40;;
49784;SDS011;35679;38.732;-121.358;2023-03-03T07:36:30;3.78;;;3.47;;
49784;SDS011;35679;38.732;-121.358;2023-03-03T07:42:31;3.33;;;3.10;;
49784;SDS011;35679;38.732;-121.358;2023-03-03T07:45:39;3.40;;;3.10;;
49784;SDS011;35679;38.732;-121.358;2023-03-03T07:48:38;3.30;;;3.10;;
49784;SDS011;35679;38.732;-121.358;2023-03-03T07:51:36;3.22;;;3.03;;
49784;SDS011;35679;38.732;-121.358;2023-03-03T07:54:34;3.53;;;3.22;;
49784;SDS011;35679;38.732;-121.358;2023-03-03T07:57:36;3.40;;;3.10;;
49784;SDS011;35679;38.732;-121.358;2023-03-03T08:03:18;3.60;;;3.30;;
49784;SDS011;35679;38.732;-121.358;2023-03-03T08:09:38;4.45;;;3.42;;
49784;SDS011;35679;38.732;-121.358;2023-03-03T08:15:30;3.13;;;2.92;;
49784;SDS011;35679;38.732;-121.358;2023-03-03T08:18:27;3.35;;;3.15;;
49784;SDS011;35679;38.732;-121.358;2023-03-03T08:21:21;3.17;;;3.00;;
49784;SDS011;35679;38.732;-121.358;2023-03-03T08:24:12;3.75;;;3.30;;
49784;SDS011;35679;38.732;-121.358;2023-03-03T08:27:01;3.63;;;3.40;;
49784;SDS011;35679;38.732;-121.358;2023-03-03T08:29:50;3.28;;;3.08;;
49784;SDS011;35679;38.732;-121.358;2023-03-03T08:32:40;3.40;;;3.08;;
49784;SDS011;35679;38.732;-121.358;2023-03-03T08:35:31;3.30;;;3.10;;
49784;SDS011;35679;38.732;-121.358;2023-03-03T08:38:21;3.22;;;3.03;;
49784;SDS011;35679;38.732;-121.358;2023-03-03T08:41:12;3.17;;;2.97;;
49784;SDS011;35679;38.732;-121.358;2023-03-03T08:44:01;3.63;;;3.33;;
49784;SDS011;35679;38.732;-121.358;2023-03-03T08:46:51;3.22;;;3.03;;
49784;SDS011;35679;38.732;-121.358;2023-03-03T08:49:41;3.35;;;3.15;;
49784;SDS011;35679;38.732;-121.358;2023-03-03T08:52:31;3.33;;;3.13;;
49784;SDS011;35679;38.732;-121.358;2023-03-03T08:55:21;3.92;;;3.17;;
49784;SDS011;35679;38.732;-121.358;2023-03-03T08:58:11;3.42;;;3.22;;
49784;SDS011;35679;38.732;-121.358;2023-03-03T09:01:00;3.60;;;3.30;;
49784;SDS011;35679;38.732;-121.358;2023-03-03T09:03:52;3.70;;;3.40;;
49784;SDS011;35679;38.732;-121.358;2023-03-03T09:06:41;3.55;;;3.33;;
49784;SDS011;35679;38.732;-121.358;2023-03-03T09:09:30;3.38;;;3.10;;
49784;SDS011;35679;38.732;-121.358;2023-03-03T09:12:33;3.60;;;3.40;;
49784;SDS011;35679;38.732;-121.358;2023-03-03T09:15:26;3.28;;;3.00;;
49784;SDS011;35679;38.732;-121.358;2023-03-03T09:18:22;3.53;;;3.22;;
49784;SDS011;35679;38.732;-121.358;2023-03-03T09:21:23;3.40;;;3.10;;
49784;SDS011;35679;38.732;-121.358;2023-03-03T09:24:21;3.83;;;3.53;;
49784;SDS011;35679;38.732;-121.358;2023-03-03T09:27:18;3.83;;;3.53;;
49784;SDS011;35679;38.732;-121.358;2023-03-03T09:30:34;3.30;;;3.00;;
49784;SDS011;35679;38.732;-121.358;2023-03-03T09:36:37;3.40;;;3.10;;
49784;SDS011;35679;38.732;-121.358;2023-03-03T09:39:28;3.50;;;3.30;;
49784;SDS011;35679;38.732;-121.358;2023-03-03T09:42:24;3.80;;;3.60;;
49784;SDS011;35679;38.732;-121.358;2023-03-03T09:48:28;3.70;;;3.40;;
49784;SDS011;35679;38.732;-121.358;2023-03-03T09:51:51;3.38;;;3.17;;
49784;SDS011;35679;38.732;-121.358;2023-03-03T10:01:32;3.30;;;2.80;;
49784;SDS011;35679;38.732;-121.358;2023-03-03T10:04:43;3.60;;;3.40;;
49784;SDS011;35679;38.732;-121.358;2023-03-03T10:07:48;3.13;;;2.92;;
49784;SDS011;35679;38.732;-121.358;2023-03-03T10:11:22;3.58;;;3.28;;
49784;SDS011;35679;38.732;-121.358;2023-03-03T10:21:23;3.30;;;3.10;;
49784;SDS011;35679;38.732;-121.358;2023-03-03T10:40:33;3.17;;;2.97;;
49784;SDS011;35679;38.732;-121.358;2023-03-03T10:47:01;3.30;;;3.10;;
49784;SDS011;35679;38.732;-121.358;2023-03-03T10:53:20;3.30;;;3.10;;
49784;SDS011;35679;38.732;-121.358;2023-03-03T10:56:14;3.53;;;3.22;;
49784;SDS011;35679;38.732;-121.358;2023-03-03T11:05:42;3.53;;;3.22;;
49784;SDS011;35679;38.732;-121.358;2023-03-03T11:12:13;3.30;;;3.03;;
49784;SDS011;35679;38.732;-121.358;2023-03-03T11:21:22;3.35;;;3.05;;
49784;SDS011;35679;38.732;-121.358;2023-03-03T11:24:43;3.80;;;3.50;;
49784;SDS011;35679;38.732;-121.358;2023-03-03T11:30:56;3.10;;;2.85;;
49784;SDS011;35679;38.732;-121.358;2023-03-03T11:34:21;2.97;;;2.88;;
49784;SDS011;35679;38.732;-121.358;2023-03-03T11:37:23;2.80;;;2.70;;
49784;SDS011;35679;38.732;-121.358;2023-03-03T11:43:52;3.53;;;3.22;;
49784;SDS011;35679;38.732;-121.358;2023-03-03T11:52:55;3.13;;;2.92;;
49784;SDS011;35679;38.732;-121.358;2023-03-03T11:56:32;3.13;;;2.92;;
49784;SDS011;35679;38.732;-121.358;2023-03-03T12:00:14;3.28;;;3.08;;
49784;SDS011;35679;38.732;-121.358;2023-03-03T12:06:28;3.20;;;3.00;;
49784;SDS011;35679;38.732;-121.358;2023-03-03T12:09:35;3.10;;;3.00;;
49784;SDS011;35679;38.732;-121.358;2023-03-03T12:16:03;3.30;;;3.10;;
49784;SDS011;35679;38.732;-121.358;2023-03-03T12:22:19;3.20;;;3.00;;
49784;SDS011;35679;38.732;-121.358;2023-03-03T12:25:35;3.15;;;2.95;;
49784;SDS011;35679;38.732;-121.358;2023-03-03T12:28:35;3.25;;;2.90;;
49784;SDS011;35679;38.732;-121.358;2023-03-03T12:34:30;3.10;;;2.90;;
49784;SDS011;35679;38.732;-121.358;2023-03-03T12:37:57;3.22;;;3.03;;
49784;SDS011;35679;38.732;-121.358;2023-03-03T12:41:13;3.20;;;3.00;;
49784;SDS011;35679;38.732;-121.358;2023-03-03T12:53:42;4.13;;;3.65;;
49784;SDS011;35679;38.732;-121.358;2023-03-03T13:06:42;3.30;;;3.10;;
49784;SDS011;35679;38.732;-121.358;2023-03-03T13:12:38;3.53;;;3.25;;
49784;SDS011;35679;38.732;-121.358;2023-03-03T13:15:43;3.50;;;3.20;;
49784;SDS011;35679;38.732;-121.358;2023-03-03T13:19:07;3.50;;;3.20;;
49784;SDS011;35679;38.732;-121.358;2023-03-03T13:22:03;3.17;;;2.97;;
49784;SDS011;35679;38.732;-121.358;2023-03-03T13:31:23;3.78;;;3.47;;
49784;SDS011;35679;38.732;-121.358;2023-03-03T13:34:23;3.83;;;3.10;;
49784;SDS011;35679;38.732;-121.358;2023-03-03T13:40:35;4.75;;;3.63;;
49784;SDS011;35679;38.732;-121.358;2023-03-03T13:43:39;3.47;;;3.28;;
49784;SDS011;35679;38.732;-121.358;2023-03-03T13:59:33;3.33;;;3.10;;
49784;SDS011;35679;38.732;-121.358;2023-03-03T14:06:03;3.67;;;3.38;;
49784;SDS011;35679;38.732;-121.358;2023-03-03T14:09:00;3.65;;;3.35;;
49784;SDS011;35679;38.732;-121.358;2023-03-03T14:15:28;3.53;;;3.23;;
49784;SDS011;35679;38.732;-121.358;2023-03-03T14:18:42;3.58;;;3.38;;
49784;SDS011;35679;38.732;-121.358;2023-03-03T14:21:48;3.55;;;3.25;;
49784;SDS011;35679;38.732;-121.358;2023-03-03T14:30:37;3.85;;;3.20;;
49784;SDS011;35679;38.732;-121.358;2023-03-03T14:33:29;3.40;;;3.10;;
49784;SDS011;35679;38.732;-121.358;2023-03-03T14:36:19;3.63;;;3.38;;
49784;SDS011;35679;38.732;-121.358;2023-03-03T14:48:26;3.50;;;3.20;;
49784;SDS011;35679;38.732;-121.358;2023-03-03T15:06:11;3.33;;;3.08;;
49784;SDS011;35679;38.732;-121.358;2023-03-03T15:12:38;3.33;;;3.13;;
49784;SDS011;35679;38.732;-121.358;2023-03-03T15:15:29;3.50;;;3.20;;
49784;SDS011;35679;38.732;-121.358;2023-03-03T15:18:18;3.28;;;2.97;;
49784;SDS011;35679;38.732;-121.358;2023-03-03T15:21:28;3.85;;;3.03;;
49784;SDS011;35679;38.732;-121.358;2023-03-03T15:24:24;3.72;;;3.13;;
49784;SDS011;35679;38.732;-121.358;2023-03-03T15:27:38;3.38;;;3.08;;
49784;SDS011;35679;38.732;-121.358;2023-03-03T15:30:35;3.40;;;3.10;;
49784;SDS011;35679;38.732;-121.358;2023-03-03T15:33:34;3.60;;;3.33;;
49784;SDS011;35679;38.732;-121.358;2023-03-03T15:52:04;3.83;;;3.53;;
49784;SDS011;35679;38.732;-121.358;2023-03-03T16:04:10;3.20;;;3.00;;
49784;SDS011;35679;38.732;-121.358;2023-03-03T16:07:17;3.53;;;3.22;;
49784;SDS011;35679;38.732;-121.358;2023-03-03T16:14:32;3.13;;;2.92;;
49784;SDS011;35679;38.732;-121.358;2023-03-03T16:23:38;3.58;;;3.28;;
49784;SDS011;35679;38.732;-121.358;2023-03-03T16:33:01;3.22;;;3.03;;
49784;SDS011;35679;38.732;-121.358;2023-03-03T16:42:56;3.20;;;2.92;;
49784;SDS011;35679;38.732;-121.358;2023-03-03T16:45:56;3.90;;;3.60;;
49784;SDS011;35679;38.732;-121.358;2023-03-03T16:48:51;3.38;;;3.08;;
49784;SDS011;35679;38.732;-121.358;2023-03-03T16:52:17;3.08;;;2.88;;
49784;SDS011;35679;38.732;-121.358;2023-03-03T16:55:31;3.47;;;3.25;;
49784;SDS011;35679;38.732;-121.358;2023-03-03T17:07:27;3.05;;;2.80;;
49784;SDS011;35679;38.732;-121.358;2023-03-03T17:10:24;3.45;;;3.15;;
49784;SDS011;35679;38.732;-121.358;2023-03-03T17:38:47;16.77;;;4.43;;
49784;SDS011;35679;38.732;-121.358;2023-03-03T17:41:44;20.67;;;5.35;;
49784;SDS011;35679;38.732;-121.358;2023-03-03T17:44:59;21.45;;;5.45;;
49784;SDS011;35679;38.732;-121.358;2023-03-03T17:48:02;28.23;;;5.32;;
49784;SDS011;35679;38.732;-121.358;2023-03-03T18:00:45;20.88;;;5.18;;
49784;SDS011;35679;38.732;-121.358;2023-03-03T18:03:49;12.57;;;4.28;;
49784;SDS011;35679;38.732;-121.358;2023-03-03T18:12:46;35.47;;;6.03;;
49784;SDS011;35679;38.732;-121.358;2023-03-03T18:15:57;26.25;;;6.35;;
49784;SDS011;35679;38.732;-121.358;2023-03-03T18:22:09;26.83;;;5.38;;
49784;SDS011;35679;38.732;-121.358;2023-03-03T18:25:11;30.33;;;5.75;;
49784;SDS011;35679;38.732;-121.358;2023-03-03T18:30:54;22.17;;;5.47;;
49784;SDS011;35679;38.732;-121.358;2023-03-03T18:34:07;21.05;;;5.45;;
49784;SDS011;35679;38.732;-121.358;2023-03-03T18:42:51;27.60;;;5.80;;
49784;SDS011;35679;38.732;-121.358;2023-03-03T18:54:33;17.83;;;5.07;;
49784;SDS011;35679;38.732;-121.358;2023-03-03T18:57:24;18.77;;;5.57;;
49784;SDS011;35679;38.732;-121.358;2023-03-03T19:00:14;13.45;;;6.30;;
49784;SDS011;35679;38.732;-121.358;2023-03-03T19:03:27;21.00;;;6.10;;
49784;SDS011;35679;38.732;-121.358;2023-03-03T19:06:53;21.25;;;8.32;;
49784;SDS011;35679;38.732;-121.358;2023-03-03T19:09:45;27.85;;;10.20;;
49784;SDS011;35679;38.732;-121.358;2023-03-03T19:19:13;48.13;;;16.40;;
49784;SDS011;35679;38.732;-121.358;2023-03-03T19:25:24;29.67;;;13.80;;
49784;SDS011;35679;38.732;-121.358;2023-03-03T19:57:09;57.20;;;22.08;;
49784;SDS011;35679;38.732;-121.358;2023-03-03T20:22:32;39.67;;;22.67;;
49784;SDS011;35679;38.732;-121.358;2023-03-03T20:36:16;16.48;;;10.52;;
49784;SDS011;35679;38.732;-121.358;2023-03-03T20:38:49;10.30;;;8.20;;
49784;SDS011;35679;38.732;-121.358;2023-03-03T20:47:56;6.30;;;4.72;;
49784;SDS011;35679;38.732;-121.358;2023-03-03T20:54:20;8.18;;;4.97;;
49784;SDS011;35679;38.732;-121.358;2023-03-03T20:57:33;5.63;;;4.45;;
49784;SDS011;35679;38.732;-121.358;2023-03-03T21:04:16;6.25;;;4.60;;
49784;SDS011;35679;38.732;-121.358;2023-03-03T21:07:23;6.60;;;4.53;;
49784;SDS011;35679;38.732;-121.358;2023-03-03T21:10:15;6.80;;;4.47;;
49784;SDS011;35679;38.732;-121.358;2023-03-03T21:13:38;5.32;;;4.22;;
49784;SDS011;35679;38.732;-121.358;2023-03-03T21:16:30;5.20;;;4.22;;
49784;SDS011;35679;38.732;-121.358;2023-03-03T21:19:27;7.22;;;3.92;;
49784;SDS011;35679;38.732;-121.358;2023-03-03T21:22:21;4.80;;;4.30;;
49784;SDS011;35679;38.732;-121.358;2023-03-03T21:25:40;6.47;;;4.30;;
49784;SDS011;35679;38.732;-121.358;2023-03-03T21:28:32;3.92;;;3.63;;
49784;SDS011;35679;38.732;-121.358;2023-03-03T21:31:22;4.38;;;3.72;;
49784;SDS011;35679;38.732;-121.358;2023-03-03T21:34:45;5.22;;;3.67;;
49784;SDS011;35679;38.732;-121.358;2023-03-03T21:37:50;5.57;;;3.65;;
49784;SDS011;35679;38.732;-121.358;2023-03-03T21:43:35;3.40;;;3.10;;
49784;SDS011;35679;38.732;-121.358;2023-03-03T21:46:27;4.05;;;3.60;;
49784;SDS011;35679;38.732;-121.358;2023-03-03T21:49:16;4.95;;;3.30;;
49784;SDS011;35679;38.732;-121.358;2023-03-03T21:52:06;5.18;;;3.30;;
49784;SDS011;35679;38.732;-121.358;2023-03-03T21:54:55;6.97;;;3.90;;
49784;SDS011;35679;38.732;-121.358;2023-03-03T21:57:44;6.72;;;3.45;;
49784;SDS011;35679;38.732;-121.358;2023-03-03T22:00:34;4.38;;;3.97;;
49784;SDS011;35679;38.732;-121.358;2023-03-03T22:03:23;3.42;;;3.13;;
49784;SDS011;35679;38.732;-121.358;2023-03-03T22:06:12;6.00;;;3.70;;
49784;SDS011;35679;38.732;-121.358;2023-03-03T22:09:02;3.80;;;3.40;;
49784;SDS011;35679;38.732;-121.358;2023-03-03T22:11:52;4.22;;;3.55;;
49784;SDS011;35679;38.732;-121.358;2023-03-03T22:14:42;5.53;;;3.78;;
49784;SDS011;35679;38.732;-121.358;2023-03-03T22:17:31;3.83;;;3.50;;
49784;SDS011;35679;38.732;-121.358;2023-03-03T22:20:20;4.03;;;3.60;;
49784;SDS011;35679;38.732;-121.358;2023-03-03T22:23:11;6.15;;;3.35;;
49784;SDS011;35679;38.732;-121.358;2023-03-03T22:26:00;3.95;;;3.63;;
49784;SDS011;35679;38.732;-121.358;2023-03-03T22:28:50;4.32;;;3.92;;
49784;SDS011;35679;38.732;-121.358;2023-03-03T22:31:39;3.72;;;3.40;;
49784;SDS011;35679;38.732;-121.358;2023-03-03T22:34:28;3.13;;;2.88;;
49784;SDS011;35679;38.732;-121.358;2023-03-03T22:37:18;4.03;;;3.63;;
49784;SDS011;35679;38.732;-121.358;2023-03-03T22:40:07;5.28;;;3.30;;
49784;SDS011;35679;38.732;-121.358;2023-03-03T22:42:57;6.53;;;3.17;;
49784;SDS011;35679;38.732;-121.358;2023-03-03T22:45:47;3.22;;;2.92;;
49784;SDS011;35679;38.732;-121.358;2023-03-03T22:48:36;4.85;;;3.40;;
49784;SDS011;35679;38.732;-121.358;2023-03-03T22:51:26;6.60;;;3.30;;
49784;SDS011;35679;38.732;-121.358;2023-03-03T22:54:16;9.07;;;3.13;;
49784;SDS011;35679;38.732;-121.358;2023-03-03T22:57:05;10.88;;;3.40;;
49784;SDS011;35679;38.732;-121.358;2023-03-03T22:59:54;6.50;;;3.03;;
49784;SDS011;35679;38.732;-121.358;2023-03-03T23:02:43;4.82;;;3.00;;
49784;SDS011;35679;38.732;-121.358;2023-03-03T23:05:33;6.57;;;3.30;;
49784;SDS011;35679;38.732;-121.358;2023-03-03T23:08:23;9.52;;;3.22;;
49784;SDS011;35679;38.732;-121.358;2023-03-03T23:11:15;4.43;;;3.20;;
49784;SDS011;35679;38.732;-121.358;2023-03-03T23:14:04;7.88;;;3.35;;
49784;SDS011;35679;38.732;-121.358;2023-03-03T23:16:54;3.55;;;3.08;;
49784;SDS011;35679;38.732;-121.358;2023-03-03T23:19:43;6.63;;;3.40;;
49784;SDS011;35679;38.732;-121.358;2023-03-03T23:22:36;8.07;;;3.40;;
49784;SDS011;35679;38.732;-121.358;2023-03-03T23:25:25;24.13;;;5.25;;
49784;SDS011;35679;38.732;-121.358;2023-03-03T23:28:16;26.92;;;4.88;;
49784;SDS011;35679;38.732;-121.358;2023-03-03T23:31:06;22.55;;;4.22;;
49784;SDS011;35679;38.732;-121.358;2023-03-03T23:33:56;24.85;;;3.75;;
49784;SDS011;35679;38.732;-121.358;2023-03-03T23:36:45;18.70;;;3.97;;
49784;SDS011;35679;38.732;-121.358;2023-03-03T23:39:34;11.73;;;3.65;;
49784;SDS011;35679;38.732;-121.358;2023-03-03T23:42:24;6.57;;;3.33;;
49784;SDS011;35679;38.732;-121.358;2023-03-03T23:45:15;12.75;;;3.63;;